Time;durP1;ratioP1;P1;durP2;ratioP2;P2;SDS_P1;SDS_P2;PMS_P1;PMS_P2;Temp;Humidity;BMP_temperature;BMP_pressure;BME280_temperature;BME280_humidity;BME280_pressure;Samples;Min_cycle;Max_cycle;Signal;HPM_P1;HPM_P2
2023/07/11 00:02:00;;;;;;;8.30;4.10;;;;;;;;;;5021416;28;20459;-85
2023/07/11 00:04:25;;;;;;;6.78;4.00;;;;;;;;;;5023584;28;20087;-86
2023/07/11 00:06:52;;;;;;;7.00;3.90;;;;;;;;;;5026672;28;20037;-85
2023/07/11 00:09:19;;;;;;;4.93;3.78;;;;;;;;;;5020193;28;20029;-85
2023/07/11 00:11:45;;;;;;;6.25;3.65;;;;;;;;;;5032822;28;20029;-85
2023/07/11 00:14:11;;;;;;;9.60;3.80;;;;;;;;;;5021939;28;20039;-83
2023/07/11 00:16:37;;;;;;;6.90;4.22;;;;;;;;;;5023850;28;20041;-83
2023/07/11 00:19:03;;;;;;;6.32;3.92;;;;;;;;;;5021141;28;20483;-84
2023/07/11 00:21:29;;;;;;;6.55;4.20;;;;;;;;;;5023886;28;20037;-84
2023/07/11 00:24:03;;;;;;;7.50;4.55;;;;;;;;;;5027113;28;20388;-84
2023/07/11 00:26:34;;;;;;;5.10;3.88;;;;;;;;;;5014709;28;20037;-84
2023/07/11 00:29:13;;;;;;;5.32;4.15;;;;;;;;;;5009942;28;20030;-83
2023/07/11 00:31:38;;;;;;;6.72;4.28;;;;;;;;;;5023067;28;20030;-84
2023/07/11 00:34:04;;;;;;;7.05;4.28;;;;;;;;;;5004719;28;20060;-84
2023/07/11 00:36:29;;;;;;;6.15;4.13;;;;;;;;;;5004647;28;20112;-83
2023/07/11 00:38:55;;;;;;;7.30;4.43;;;;;;;;;;5025061;28;20034;-84
2023/07/11 00:41:20;;;;;;;7.40;4.22;;;;;;;;;;5026884;28;20464;-85
2023/07/11 00:43:46;;;;;;;9.27;4.63;;;;;;;;;;5029287;28;20042;-84
2023/07/11 00:46:16;;;;;;;6.65;4.03;;;;;;;;;;5002655;28;20044;-83
2023/07/11 00:48:52;;;;;;;8.73;4.20;;;;;;;;;;5015911;28;20037;-84
2023/07/11 00:51:32;;;;;;;9.95;4.20;;;;;;;;;;5017493;28;20526;-86
2023/07/11 00:54:00;;;;;;;6.50;4.13;;;;;;;;;;5022994;28;20038;-85
2023/07/11 00:56:29;;;;;;;5.45;3.85;;;;;;;;;;5027595;28;20068;-84
2023/07/11 00:58:56;;;;;;;6.72;4.00;;;;;;;;;;5016387;28;20041;-84
2023/07/11 01:01:23;;;;;;;6.22;3.90;;;;;;;;;;5020424;28;20112;-84
2023/07/11 01:03:51;;;;;;;8.52;4.65;;;;;;;;;;5018381;28;20044;-84
2023/07/11 01:06:22;;;;;;;6.38;4.15;;;;;;;;;;5006614;28;20038;-86
2023/07/11 01:08:50;;;;;;;8.50;4.13;;;;;;;;;;5025899;28;20033;-84
2023/07/11 01:11:17;;;;;;;5.78;3.92;;;;;;;;;;5022720;28;20087;-83
2023/07/11 01:13:43;;;;;;;6.13;4.07;;;;;;;;;;5020428;28;20451;-83
2023/07/11 01:16:08;;;;;;;8.05;4.28;;;;;;;;;;5017100;28;20030;-84
2023/07/11 01:18:34;;;;;;;7.90;3.97;;;;;;;;;;5021734;28;20037;-84
2023/07/11 01:21:04;;;;;;;8.73;4.30;;;;;;;;;;5015944;28;20034;-81
2023/07/11 01:23:31;;;;;;;6.28;3.92;;;;;;;;;;5015273;28;20082;-81
2023/07/11 01:26:02;;;;;;;7.15;4.20;;;;;;;;;;5019390;28;20044;-81
2023/07/11 01:28:28;;;;;;;6.65;4.15;;;;;;;;;;5001449;28;20041;-81
2023/07/11 01:30:54;;;;;;;7.63;4.20;;;;;;;;;;5015339;28;20503;-81
2023/07/11 01:33:24;;;;;;;8.77;4.20;;;;;;;;;;5020230;28;20041;-81
2023/07/11 01:35:53;;;;;;;5.85;4.25;;;;;;;;;;5021549;28;20034;-81
2023/07/11 01:38:21;;;;;;;6.95;4.13;;;;;;;;;;5014840;28;20564;-81
2023/07/11 01:40:48;;;;;;;6.53;4.07;;;;;;;;;;5016292;28;20034;-82
2023/07/11 01:43:18;;;;;;;9.30;4.30;;;;;;;;;;5020496;28;20033;-81
2023/07/11 01:45:43;;;;;;;9.13;4.28;;;;;;;;;;5023793;28;20092;-81
2023/07/11 01:48:09;;;;;;;5.95;3.88;;;;;;;;;;4999655;28;20407;-81
2023/07/11 01:50:35;;;;;;;8.18;4.28;;;;;;;;;;5013902;28;20136;-81
2023/07/11 01:53:00;;;;;;;7.00;4.03;;;;;;;;;;5022400;28;20045;-81
2023/07/11 01:55:26;;;;;;;7.70;3.85;;;;;;;;;;5005931;28;20091;-81
2023/07/11 01:57:51;;;;;;;10.88;4.32;;;;;;;;;;5000941;28;20512;-81
2023/07/11 02:00:17;;;;;;;8.20;3.90;;;;;;;;;;5000580;28;20034;-81
2023/07/11 02:02:50;;;;;;;7.53;4.32;;;;;;;;;;4998930;28;20066;-81
2023/07/11 02:05:15;;;;;;;5.38;3.92;;;;;;;;;;5018960;28;20593;-81
2023/07/11 02:07:41;;;;;;;8.30;4.30;;;;;;;;;;5021929;28;20046;-81
2023/07/11 02:10:08;;;;;;;5.88;4.18;;;;;;;;;;5006189;28;20037;-81
2023/07/11 02:12:33;;;;;;;7.10;4.25;;;;;;;;;;5021937;28;20053;-80
2023/07/11 02:14:59;;;;;;;7.05;4.13;;;;;;;;;;5004073;28;20034;-81
2023/07/11 02:17:24;;;;;;;6.47;4.00;;;;;;;;;;5020470;28;20030;-80
2023/07/11 02:19:50;;;;;;;7.55;4.03;;;;;;;;;;5018710;28;20068;-81
2023/07/11 02:22:15;;;;;;;7.78;4.10;;;;;;;;;;5020506;28;20077;-81
2023/07/11 02:24:41;;;;;;;9.55;4.05;;;;;;;;;;5023110;28;20034;-81
2023/07/11 02:27:07;;;;;;;5.85;3.80;;;;;;;;;;5007512;28;20029;-81
2023/07/11 02:29:32;;;;;;;5.95;3.75;;;;;;;;;;5020096;28;20038;-81
2023/07/11 02:31:58;;;;;;;8.68;4.03;;;;;;;;;;5019675;28;20487;-81
2023/07/11 02:34:23;;;;;;;5.88;3.95;;;;;;;;;;5018354;28;20034;-81
2023/07/11 02:36:49;;;;;;;6.47;3.97;;;;;;;;;;5018027;28;20034;-81
2023/07/11 02:39:15;;;;;;;8.45;4.20;;;;;;;;;;5021215;28;20049;-81
2023/07/11 02:41:40;;;;;;;7.82;4.18;;;;;;;;;;5024828;28;20578;-81
2023/07/11 02:44:06;;;;;;;7.88;4.15;;;;;;;;;;5028087;28;20030;-81
2023/07/11 02:46:32;;;;;;;10.98;4.45;;;;;;;;;;5014278;28;20037;-81
2023/07/11 02:48:57;;;;;;;7.60;4.40;;;;;;;;;;5018803;28;20664;-80
2023/07/11 02:51:23;;;;;;;7.90;4.50;;;;;;;;;;5016965;28;20069;-80
2023/07/11 02:53:49;;;;;;;7.35;4.35;;;;;;;;;;5019466;28;20033;-81
2023/07/11 02:56:15;;;;;;;9.18;4.40;;;;;;;;;;5023155;28;20095;-81
2023/07/11 02:58:41;;;;;;;6.75;4.35;;;;;;;;;;4997294;28;20060;-81
2023/07/11 03:01:06;;;;;;;7.75;4.50;;;;;;;;;;5026375;28;20487;-80
2023/07/11 03:03:32;;;;;;;8.70;4.72;;;;;;;;;;5017069;28;20065;-81
2023/07/11 03:05:57;;;;;;;7.40;4.53;;;;;;;;;;5016466;28;20037;-80
2023/07/11 03:08:23;;;;;;;6.85;4.63;;;;;;;;;;5018340;28;20033;-80
2023/07/11 03:10:48;;;;;;;5.32;3.88;;;;;;;;;;5020887;28;20045;-82
2023/07/11 03:13:14;;;;;;;6.55;4.20;;;;;;;;;;5024670;28;20109;-80
2023/07/11 03:15:40;;;;;;;7.75;4.18;;;;;;;;;;5011366;28;20029;-82
2023/07/11 03:18:07;;;;;;;8.85;4.25;;;;;;;;;;5023057;28;20566;-82
2023/07/11 03:20:36;;;;;;;7.22;4.43;;;;;;;;;;5014119;28;20037;-82
2023/07/11 03:23:02;;;;;;;5.57;4.00;;;;;;;;;;5016666;28;20033;-80
2023/07/11 03:25:27;;;;;;;7.38;4.38;;;;;;;;;;5020242;28;20033;-82
2023/07/11 03:27:53;;;;;;;6.35;4.50;;;;;;;;;;5023252;28;20068;-81
2023/07/11 03:30:18;;;;;;;6.25;4.32;;;;;;;;;;5025327;28;20095;-82
2023/07/11 03:32:44;;;;;;;8.15;4.13;;;;;;;;;;5028631;28;20033;-82
2023/07/11 03:35:09;;;;;;;5.38;4.00;;;;;;;;;;5020495;28;20045;-81
2023/07/11 03:37:34;;;;;;;9.32;4.40;;;;;;;;;;5014383;28;20029;-81
2023/07/11 03:40:00;;;;;;;9.77;4.43;;;;;;;;;;5016797;28;20050;-82
2023/07/11 03:42:26;;;;;;;9.45;4.60;;;;;;;;;;5020415;28;20042;-81
2023/07/11 03:44:52;;;;;;;9.25;4.70;;;;;;;;;;5022973;28;20034;-81
2023/07/11 03:47:17;;;;;;;7.90;4.80;;;;;;;;;;5026232;28;20542;-82
2023/07/11 03:49:42;;;;;;;9.52;5.20;;;;;;;;;;5029564;28;20462;-81
2023/07/11 03:52:08;;;;;;;8.02;4.75;;;;;;;;;;5012979;28;20427;-81
2023/07/11 03:54:34;;;;;;;10.30;4.70;;;;;;;;;;5015815;28;20420;-81
2023/07/11 03:56:59;;;;;;;9.60;5.00;;;;;;;;;;5018764;28;20038;-81
2023/07/11 03:59:24;;;;;;;7.75;4.30;;;;;;;;;;5022313;28;20092;-81
2023/07/11 04:01:50;;;;;;;7.10;4.38;;;;;;;;;;5024366;28;20033;-81
2023/07/11 04:04:15;;;;;;;7.90;4.50;;;;;;;;;;5026044;28;20406;-81
2023/07/11 04:06:41;;;;;;;8.75;4.90;;;;;;;;;;5028993;28;20041;-82
2023/07/11 04:09:07;;;;;;;8.32;5.68;;;;;;;;;;5014342;28;20172;-82
2023/07/11 04:11:32;;;;;;;6.88;5.07;;;;;;;;;;5018137;28;20111;-81
2023/07/11 04:13:58;;;;;;;5.53;4.32;;;;;;;;;;5019827;28;20038;-81
2023/07/11 04:16:23;;;;;;;10.63;4.97;;;;;;;;;;5022871;28;20021;-81
2023/07/11 04:18:49;;;;;;;9.10;4.95;;;;;;;;;;5026501;28;20025;-80
2023/07/11 04:21:16;;;;;;;8.82;4.75;;;;;;;;;;5027415;28;20040;-80
2023/07/11 04:23:42;;;;;;;12.20;5.15;;;;;;;;;;5013696;28;20045;-81
2023/07/11 04:26:07;;;;;;;6.63;4.88;;;;;;;;;;5016733;28;20042;-81
2023/07/11 04:28:33;;;;;;;7.68;4.78;;;;;;;;;;5022238;28;20115;-81
2023/07/11 04:30:58;;;;;;;7.35;5.05;;;;;;;;;;5024631;28;20109;-81
2023/07/11 04:33:24;;;;;;;7.68;4.90;;;;;;;;;;5028660;28;20026;-80
2023/07/11 04:35:49;;;;;;;10.18;5.20;;;;;;;;;;5018326;28;20033;-81
2023/07/11 04:38:14;;;;;;;9.75;4.85;;;;;;;;;;5020378;28;20503;-80
2023/07/11 04:40:40;;;;;;;9.13;4.95;;;;;;;;;;5018702;28;20155;-81
2023/07/11 04:43:06;;;;;;;8.82;4.88;;;;;;;;;;5021683;28;20036;-81
2023/07/11 04:45:33;;;;;;;9.07;4.72;;;;;;;;;;5024046;28;20048;-81
2023/07/11 04:48:01;;;;;;;7.88;4.93;;;;;;;;;;5028109;28;20399;-81
2023/07/11 04:50:26;;;;;;;9.13;5.28;;;;;;;;;;5025565;28;20034;-79
2023/07/11 04:52:52;;;;;;;9.43;5.20;;;;;;;;;;5019012;28;20037;-81
2023/07/11 04:55:17;;;;;;;8.73;5.35;;;;;;;;;;5017580;28;20046;-81
2023/07/11 04:57:43;;;;;;;7.60;5.35;;;;;;;;;;5020154;28;20123;-81
2023/07/11 05:00:09;;;;;;;7.82;4.97;;;;;;;;;;5022859;28;20033;-80
2023/07/11 05:02:34;;;;;;;6.75;5.05;;;;;;;;;;5025330;28;20049;-81
2023/07/11 05:05:00;;;;;;;9.68;5.30;;;;;;;;;;5011477;28;20062;-81
2023/07/11 05:07:25;;;;;;;8.35;5.32;;;;;;;;;;5014224;28;20096;-81
2023/07/11 05:09:51;;;;;;;7.80;5.22;;;;;;;;;;5017859;28;20061;-81
2023/07/11 05:12:16;;;;;;;8.63;5.60;;;;;;;;;;5012258;28;20072;-81
2023/07/11 05:14:42;;;;;;;11.90;5.50;;;;;;;;;;5021110;28;20507;-81
2023/07/11 05:17:07;;;;;;;11.00;5.40;;;;;;;;;;5024514;28;20458;-81
2023/07/11 05:19:33;;;;;;;10.52;4.97;;;;;;;;;;5027842;28;20037;-83
2023/07/11 05:21:58;;;;;;;8.68;5.07;;;;;;;;;;5030368;28;20045;-82
2023/07/11 05:24:24;;;;;;;11.00;5.35;;;;;;;;;;5019270;28;20040;-81
2023/07/11 05:26:50;;;;;;;9.63;5.22;;;;;;;;;;5016722;28;20034;-82
2023/07/11 05:29:15;;;;;;;9.70;5.15;;;;;;;;;;5019018;28;20061;-81
2023/07/11 05:31:41;;;;;;;7.63;4.85;;;;;;;;;;5022150;28;20087;-82
2023/07/11 05:34:07;;;;;;;9.25;5.05;;;;;;;;;;5026356;28;20034;-81
2023/07/11 05:36:34;;;;;;;9.45;5.25;;;;;;;;;;5029016;28;20487;-81
2023/07/11 05:39:14;;;;;;;9.65;5.28;;;;;;;;;;5028599;28;20036;-81
2023/07/11 05:41:45;;;;;;;10.52;5.00;;;;;;;;;;5015867;28;20116;-81
2023/07/11 05:44:12;;;;;;;13.07;5.90;;;;;;;;;;5021788;28;20186;-82
2023/07/11 05:46:39;;;;;;;10.05;6.05;;;;;;;;;;5021431;28;20072;-82
2023/07/11 05:49:05;;;;;;;8.65;5.13;;;;;;;;;;5024124;28;20145;-81
2023/07/11 05:51:30;;;;;;;8.50;4.95;;;;;;;;;;5027735;28;20049;-82
2023/07/11 05:53:56;;;;;;;12.40;5.13;;;;;;;;;;5030636;28;20026;-82
2023/07/11 05:56:22;;;;;;;11.13;4.82;;;;;;;;;;5025136;28;20395;-81
2023/07/11 05:58:50;;;;;;;7.90;4.60;;;;;;;;;;5015052;28;20388;-82
2023/07/11 06:01:19;;;;;;;8.40;4.70;;;;;;;;;;5018635;28;20029;-81
2023/07/11 06:03:47;;;;;;;10.90;5.00;;;;;;;;;;5021130;28;20037;-81
2023/07/11 06:06:14;;;;;;;6.22;4.40;;;;;;;;;;5024741;28;20044;-81
2023/07/11 06:08:40;;;;;;;8.30;4.70;;;;;;;;;;5028300;28;20399;-81
2023/07/11 06:11:06;;;;;;;7.88;4.60;;;;;;;;;;5032015;28;20499;-81
2023/07/11 06:13:35;;;;;;;8.88;5.13;;;;;;;;;;5033497;28;20038;-81
2023/07/11 06:16:08;;;;;;;7.78;4.78;;;;;;;;;;5029366;28;20034;-81
2023/07/11 06:18:36;;;;;;;11.63;5.10;;;;;;;;;;5020812;28;20033;-82
2023/07/11 06:21:02;;;;;;;6.38;4.45;;;;;;;;;;5024020;28;20143;-81
2023/07/11 06:23:27;;;;;;;8.35;4.53;;;;;;;;;;5027175;28;20057;-82
2023/07/11 06:25:53;;;;;;;5.95;4.32;;;;;;;;;;5029284;28;20040;-82
2023/07/11 06:28:18;;;;;;;9.23;4.78;;;;;;;;;;5010397;28;20138;-81
2023/07/11 06:30:43;;;;;;;11.48;4.85;;;;;;;;;;5015257;28;20041;-81
2023/07/11 06:33:10;;;;;;;8.90;5.00;;;;;;;;;;5018532;28;20043;-81
2023/07/11 06:35:37;;;;;;;7.22;4.40;;;;;;;;;;5021166;28;20145;-81
2023/07/11 06:38:03;;;;;;;11.27;4.80;;;;;;;;;;5024133;28;20092;-80
2023/07/11 06:40:28;;;;;;;9.55;4.90;;;;;;;;;;5027585;28;20037;-81
2023/07/11 06:42:53;;;;;;;8.48;4.90;;;;;;;;;;5024992;28;20077;-82
2023/07/11 06:45:19;;;;;;;8.05;4.65;;;;;;;;;;5014810;28;20033;-82
2023/07/11 06:47:44;;;;;;;12.40;4.63;;;;;;;;;;5017023;28;20076;-81
2023/07/11 06:50:10;;;;;;;10.82;4.80;;;;;;;;;;5020272;28;20068;-81
2023/07/11 06:52:35;;;;;;;7.75;4.75;;;;;;;;;;5024112;28;20040;-80
2023/07/11 06:55:01;;;;;;;8.88;5.10;;;;;;;;;;5026178;28;20109;-82
2023/07/11 06:57:27;;;;;;;6.88;4.55;;;;;;;;;;5014164;28;20041;-81
2023/07/11 06:59:52;;;;;;;7.10;4.85;;;;;;;;;;5013411;28;20033;-82
2023/07/11 07:02:18;;;;;;;9.85;5.32;;;;;;;;;;5017288;28;20013;-82
2023/07/11 07:04:43;;;;;;;6.45;4.95;;;;;;;;;;5019384;28;20149;-80
2023/07/11 07:07:09;;;;;;;9.30;5.00;;;;;;;;;;5023459;28;20022;-81
2023/07/11 07:09:34;;;;;;;7.40;4.88;;;;;;;;;;5016170;28;20073;-80
2023/07/11 07:12:00;;;;;;;13.05;5.03;;;;;;;;;;5016769;28;20033;-80
2023/07/11 07:14:25;;;;;;;11.18;4.90;;;;;;;;;;5017456;28;20040;-81
2023/07/11 07:16:51;;;;;;;12.10;5.13;;;;;;;;;;5015257;28;20056;-81
2023/07/11 07:19:16;;;;;;;8.35;5.22;;;;;;;;;;5000384;28;20123;-81
2023/07/11 07:21:41;;;;;;;9.70;5.28;;;;;;;;;;5016018;28;20041;-80
2023/07/11 07:24:07;;;;;;;9.30;5.47;;;;;;;;;;5015797;28;20045;-80
2023/07/11 07:26:33;;;;;;;9.27;5.00;;;;;;;;;;5019458;28;20146;-82
2023/07/11 07:28:58;;;;;;;9.13;5.22;;;;;;;;;;5020727;28;20037;-80
2023/07/11 07:31:24;;;;;;;10.45;5.03;;;;;;;;;;5014982;28;20478;-81
2023/07/11 07:33:50;;;;;;;11.40;5.00;;;;;;;;;;5015482;28;20095;-81
2023/07/11 07:36:15;;;;;;;10.73;4.85;;;;;;;;;;5019698;28;20535;-81
2023/07/11 07:38:41;;;;;;;11.85;4.70;;;;;;;;;;5020321;28;20721;-80
2023/07/11 07:41:09;;;;;;;7.22;4.50;;;;;;;;;;5048247;22;20120;-83
2023/07/11 07:43:36;;;;;;;11.20;4.60;;;;;;;;;;5027596;28;20084;-84
2023/07/11 07:46:03;;;;;;;7.15;4.85;;;;;;;;;;5018726;28;20040;-83
2023/07/11 07:48:29;;;;;;;8.63;4.40;;;;;;;;;;5018566;28;20035;-83
2023/07/11 07:51:09;;;;;;;5.43;4.32;;;;;;;;;;5022816;28;20093;-84
2023/07/11 07:53:35;;;;;;;8.82;4.80;;;;;;;;;;5005307;28;20537;-82
2023/07/11 07:56:09;;;;;;;7.18;4.78;;;;;;;;;;5007707;28;20046;-82
2023/07/11 07:58:35;;;;;;;7.35;4.63;;;;;;;;;;5012586;28;20025;-82
2023/07/11 08:01:03;;;;;;;7.45;4.70;;;;;;;;;;4984473;28;20050;-81
2023/07/11 08:03:28;;;;;;;9.30;4.65;;;;;;;;;;5003445;28;20125;-84
2023/07/11 08:05:54;;;;;;;7.93;5.03;;;;;;;;;;5008098;28;20129;-84
2023/07/11 08:08:21;;;;;;;9.60;4.80;;;;;;;;;;5009605;28;20036;-83
2023/07/11 08:10:46;;;;;;;7.03;4.60;;;;;;;;;;5010236;28;20379;-82
2023/07/11 08:13:12;;;;;;;7.78;5.20;;;;;;;;;;4984018;28;20026;-84
2023/07/11 08:15:37;;;;;;;7.93;4.40;;;;;;;;;;4997771;28;20539;-82
2023/07/11 08:18:02;;;;;;;8.35;4.70;;;;;;;;;;5010835;28;20073;-83
2023/07/11 08:20:28;;;;;;;14.40;5.15;;;;;;;;;;4988054;28;20062;-82
2023/07/11 08:22:54;;;;;;;9.57;4.80;;;;;;;;;;5009119;28;20037;-81
2023/07/11 08:25:20;;;;;;;6.90;4.47;;;;;;;;;;5003958;28;20113;-82
2023/07/11 08:27:45;;;;;;;8.77;4.85;;;;;;;;;;5011536;28;20030;-83
2023/07/11 08:30:11;;;;;;;10.05;4.90;;;;;;;;;;4987905;28;20035;-85
2023/07/11 08:32:38;;;;;;;7.68;4.50;;;;;;;;;;5005731;28;20089;-83
2023/07/11 08:35:06;;;;;;;7.15;4.85;;;;;;;;;;5007118;28;20084;-85
2023/07/11 08:37:33;;;;;;;11.10;5.10;;;;;;;;;;5003895;28;20117;-85
2023/07/11 08:39:58;;;;;;;8.95;5.03;;;;;;;;;;4986674;28;20087;-84
2023/07/11 08:42:33;;;;;;;12.02;5.05;;;;;;;;;;5008252;28;20114;-85
2023/07/11 08:45:19;;;;;;;7.60;5.10;;;;;;;;;;5002029;28;20034;-84
2023/07/11 08:47:54;;;;;;;8.82;5.40;;;;;;;;;;4989839;28;20080;-85
2023/07/11 08:50:29;;;;;;;8.32;4.50;;;;;;;;;;5003638;28;20030;-84
2023/07/11 08:53:05;;;;;;;9.30;5.00;;;;;;;;;;5009336;28;20066;-83
2023/07/11 08:55:33;;;;;;;8.63;4.75;;;;;;;;;;5009271;28;20484;-83
2023/07/11 08:58:24;;;;;;;10.07;5.15;;;;;;;;;;5011650;28;20121;-84
2023/07/11 09:00:50;;;;;;;9.18;4.75;;;;;;;;;;5005262;28;20038;-84
2023/07/11 09:03:32;;;;;;;9.18;5.07;;;;;;;;;;5000235;28;20046;-84
2023/07/11 09:06:02;;;;;;;9.65;5.05;;;;;;;;;;5003018;28;20076;-83
2023/07/11 09:08:29;;;;;;;8.77;4.97;;;;;;;;;;5005815;28;20173;-83
2023/07/11 09:11:29;;;;;;;12.00;5.30;;;;;;;;;;5007376;28;20049;-84
2023/07/11 09:13:57;;;;;;;10.68;5.07;;;;;;;;;;5012410;28;20030;-83
2023/07/11 09:16:35;;;;;;;13.40;5.50;;;;;;;;;;5006042;28;20038;-84
2023/07/11 09:19:19;;;;;;;10.27;4.93;;;;;;;;;;5002358;28;20038;-83
2023/07/11 09:22:06;;;;;;;9.52;5.45;;;;;;;;;;5009402;28;20068;-84
2023/07/11 09:25:00;;;;;;;9.85;5.20;;;;;;;;;;5006045;28;20042;-83
2023/07/11 09:27:27;;;;;;;;;;;;;;;;;;5003830;28;20096;-83
2023/07/11 09:29:53;;;;;;;7.53;5.40;;;;;;;;;;4997289;28;20354;-83
2023/07/11 09:32:20;;;;;;;7.68;4.80;;;;;;;;;;4997114;28;20061;-83
2023/07/11 09:34:48;;;;;;;6.65;4.90;;;;;;;;;;5001001;28;20125;-84
2023/07/11 09:37:38;;;;;;;11.77;5.32;;;;;;;;;;4999507;28;20105;-82
2023/07/11 09:40:27;;;;;;;11.20;5.07;;;;;;;;;;5004667;28;20033;-83
2023/07/11 09:42:55;;;;;;;8.75;5.32;;;;;;;;;;5002962;28;20462;-83
2023/07/11 09:45:45;;;;;;;9.45;5.50;;;;;;;;;;5008465;28;20041;-82
2023/07/11 09:48:30;;;;;;;12.68;5.40;;;;;;;;;;5000207;28;20100;-83
2023/07/11 09:51:36;;;;;;;7.72;5.32;;;;;;;;;;4987383;28;20042;-83
2023/07/11 09:54:04;;;;;;;11.38;5.63;;;;;;;;;;4978948;28;20062;-84
2023/07/11 09:56:42;;;;;;;9.55;5.40;;;;;;;;;;4983447;28;20037;-84
2023/07/11 09:59:11;;;;;;;10.27;5.25;;;;;;;;;;5006204;28;20050;-84
2023/07/11 10:01:37;;;;;;;11.88;5.30;;;;;;;;;;4989470;28;20097;-83
2023/07/11 10:04:06;;;;;;;10.93;5.60;;;;;;;;;;4997086;28;20101;-83
2023/07/11 10:06:41;;;;;;;9.15;5.57;;;;;;;;;;4981563;28;20478;-84
2023/07/11 10:09:16;;;;;;;8.57;5.03;;;;;;;;;;5002566;28;20041;-83
2023/07/11 10:11:41;;;;;;;8.30;5.40;;;;;;;;;;5008241;28;20038;-84
2023/07/11 10:14:16;;;;;;;11.63;5.65;;;;;;;;;;5011536;28;20034;-82
2023/07/11 10:16:41;;;;;;;10.35;5.78;;;;;;;;;;5004165;28;20056;-83
2023/07/11 10:19:16;;;;;;;9.63;5.72;;;;;;;;;;5002883;28;20034;-83
2023/07/11 10:21:50;;;;;;;10.13;5.60;;;;;;;;;;4985698;28;20038;-85
2023/07/11 10:24:25;;;;;;;8.65;5.43;;;;;;;;;;5005139;28;20062;-85
2023/07/11 10:26:59;;;;;;;8.48;5.43;;;;;;;;;;5004360;28;20032;-83
2023/07/11 10:29:29;;;;;;;8.25;5.40;;;;;;;;;;5002630;28;20044;-84
2023/07/11 10:31:57;;;;;;;10.88;5.40;;;;;;;;;;5009163;28;20042;-85
2023/07/11 10:34:40;;;;;;;8.40;5.63;;;;;;;;;;5001201;28;20082;-84
2023/07/11 10:37:12;;;;;;;8.90;5.25;;;;;;;;;;5004725;28;20492;-82
2023/07/11 10:39:44;;;;;;;;;;;;;;;;;;4989122;28;20492;-84
2023/07/11 10:42:28;;;;;;;8.15;5.40;;;;;;;;;;5002807;28;20026;-83
2023/07/11 10:45:23;;;;;;;10.50;5.60;;;;;;;;;;5005574;28;20026;-83
2023/07/11 10:48:11;;;;;;;7.97;5.50;;;;;;;;;;4982937;28;20049;-84
2023/07/11 10:50:49;;;;;;;11.48;5.40;;;;;;;;;;4992365;28;20063;-85
2023/07/11 10:53:21;;;;;;;11.05;5.72;;;;;;;;;;5002024;28;20034;-85
2023/07/11 10:56:11;;;;;;;9.43;5.50;;;;;;;;;;5007122;28;20033;-85
2023/07/11 10:58:36;;;;;;;11.95;5.90;;;;;;;;;;5001845;28;20408;-83
2023/07/11 11:01:27;;;;;;;11.00;5.50;;;;;;;;;;5001486;28;20030;-82
2023/07/11 11:04:07;;;;;;;8.63;5.80;;;;;;;;;;5007043;28;20038;-84
2023/07/11 11:06:54;;;;;;;13.30;6.00;;;;;;;;;;5000807;28;20041;-84
2023/07/11 11:09:35;;;;;;;12.15;5.60;;;;;;;;;;5008982;28;20108;-83
2023/07/11 11:13:00;;;;;;;10.82;5.78;;;;;;;;;;5006114;28;20035;-86
2023/07/11 11:15:45;;;;;;;14.57;5.45;;;;;;;;;;4925545;29;20512;-82
2023/07/11 11:18:54;;;;;;;12.40;5.90;;;;;;;;;;5001206;28;20038;-82
2023/07/11 11:21:28;;;;;;;10.20;6.18;;;;;;;;;;4971469;28;20044;-84
2023/07/11 11:24:16;;;;;;;11.20;5.82;;;;;;;;;;5003024;28;20034;-82
2023/07/11 11:27:18;;;;;;;11.73;5.65;;;;;;;;;;5005473;28;20042;-84
2023/07/11 11:29:44;;;;;;;10.60;5.93;;;;;;;;;;5007184;28;20076;-83
2023/07/11 11:32:09;;;;;;;11.23;6.03;;;;;;;;;;4999642;28;20039;-83
2023/07/11 11:34:47;;;;;;;16.20;6.28;;;;;;;;;;5001371;28;20069;-84
2023/07/11 11:37:35;;;;;;;10.38;5.97;;;;;;;;;;5001530;28;20042;-82
2023/07/11 11:40:20;;;;;;;10.10;5.60;;;;;;;;;;5004830;28;20044;-84
2023/07/11 11:42:51;;;;;;;8.95;5.63;;;;;;;;;;5007758;28;20034;-84
2023/07/11 11:45:21;;;;;;;12.38;5.32;;;;;;;;;;5011327;28;20050;-82
2023/07/11 11:47:48;;;;;;;11.98;5.50;;;;;;;;;;5004540;28;20038;-83
2023/07/11 11:50:17;;;;;;;9.85;5.88;;;;;;;;;;5004671;28;20080;-84
2023/07/11 11:52:44;;;;;;;10.13;5.57;;;;;;;;;;5000180;28;20069;-84
2023/07/11 11:55:31;;;;;;;10.05;5.97;;;;;;;;;;5001605;28;20102;-83
2023/07/11 11:57:57;;;;;;;9.35;5.85;;;;;;;;;;5003368;28;20097;-82
2023/07/11 12:00:51;;;;;;;14.32;6.05;;;;;;;;;;5006774;28;20030;-83
2023/07/11 12:03:44;;;;;;;14.35;5.55;;;;;;;;;;4993024;28;20050;-82
2023/07/11 12:06:31;;;;;;;9.90;5.47;;;;;;;;;;4993541;28;20047;-81
2023/07/11 12:09:15;;;;;;;10.95;5.43;;;;;;;;;;5005230;28;20046;-82
2023/07/11 12:12:03;;;;;;;9.90;5.78;;;;;;;;;;5001387;28;20088;-83
2023/07/11 12:14:34;;;;;;;10.48;5.18;;;;;;;;;;5006769;28;20502;-84
2023/07/11 12:16:59;;;;;;;9.55;5.53;;;;;;;;;;5010574;28;20038;-83
2023/07/11 12:19:37;;;;;;;11.88;5.28;;;;;;;;;;5013535;28;20152;-82
2023/07/11 12:22:06;;;;;;;10.25;5.15;;;;;;;;;;4983853;28;20053;-83
2023/07/11 12:24:32;;;;;;;8.73;4.70;;;;;;;;;;5003570;28;20066;-82
2023/07/11 12:27:09;;;;;;;8.57;4.90;;;;;;;;;;5002950;28;20037;-83
2023/07/11 12:29:34;;;;;;;7.25;4.57;;;;;;;;;;4987333;28;20042;-81
2023/07/11 12:32:30;;;;;;;9.48;4.93;;;;;;;;;;4990822;28;20042;-83
2023/07/11 12:34:58;;;;;;;9.95;4.70;;;;;;;;;;5015988;28;20038;-85
2023/07/11 12:37:26;;;;;;;9.85;4.60;;;;;;;;;;5011193;28;20480;-86
2023/07/11 12:40:08;;;;;;;7.60;4.32;;;;;;;;;;5003045;28;20504;-85
2023/07/11 12:42:45;;;;;;;6.10;4.50;;;;;;;;;;5005506;28;20069;-85
2023/07/11 12:45:16;;;;;;;10.05;4.72;;;;;;;;;;5009922;28;20042;-86
2023/07/11 12:47:43;;;;;;;8.18;4.95;;;;;;;;;;4993065;28;20050;-85
2023/07/11 12:50:22;;;;;;;9.13;4.38;;;;;;;;;;5015718;28;20474;-84
2023/07/11 12:53:03;;;;;;;12.77;4.72;;;;;;;;;;4996889;28;20030;-85
2023/07/11 12:55:29;;;;;;;9.85;4.30;;;;;;;;;;5003279;28;20084;-85
2023/07/11 12:57:56;;;;;;;8.75;4.32;;;;;;;;;;5005385;28;20048;-85
2023/07/11 13:00:23;;;;;;;8.73;4.15;;;;;;;;;;5005630;28;20488;-85
2023/07/11 13:02:55;;;;;;;7.50;3.97;;;;;;;;;;5008988;28;20038;-84
2023/07/11 13:05:23;;;;;;;6.22;4.15;;;;;;;;;;5016753;28;20032;-84
2023/07/11 13:07:50;;;;;;;10.85;4.70;;;;;;;;;;5013964;28;20034;-85
2023/07/11 13:10:20;;;;;;;8.82;4.53;;;;;;;;;;5005651;28;20073;-84
2023/07/11 13:12:46;;;;;;;12.27;4.18;;;;;;;;;;5000560;28;20527;-82
2023/07/11 13:15:18;;;;;;;8.32;4.50;;;;;;;;;;5007666;28;20042;-84
2023/07/11 13:17:55;;;;;;;8.70;4.32;;;;;;;;;;5008265;28;20061;-85
2023/07/11 13:20:24;;;;;;;6.50;4.57;;;;;;;;;;5011334;28;20050;-83
2023/07/11 13:22:51;;;;;;;8.43;4.28;;;;;;;;;;5015255;28;20045;-85
2023/07/11 13:25:27;;;;;;;10.10;4.22;;;;;;;;;;5014617;28;20104;-85
2023/07/11 13:27:52;;;;;;;8.00;4.15;;;;;;;;;;5000468;28;20038;-84
2023/07/11 13:30:25;;;;;;;7.20;4.22;;;;;;;;;;5003365;28;20048;-85
2023/07/11 13:32:54;;;;;;;;;;;;;;;;;;5007097;28;20038;-82
2023/07/11 13:35:20;;;;;;;7.97;4.40;;;;;;;;;;4991047;28;19922;-82
2023/07/11 13:37:47;;;;;;;11.30;4.38;;;;;;;;;;5012181;28;20093;-82
2023/07/11 13:40:32;;;;;;;7.55;4.05;;;;;;;;;;5013559;28;20044;-83
2023/07/11 13:42:59;;;;;;;11.48;4.30;;;;;;;;;;5016494;28;20037;-83
2023/07/11 13:45:28;;;;;;;11.52;5.57;;;;;;;;;;5012805;28;20038;-84
2023/07/11 13:47:55;;;;;;;33.50;4.93;;;;;;;;;;5009219;28;20124;-83
2023/07/11 13:50:30;;;;;;;7.07;4.35;;;;;;;;;;5005683;28;20044;-83
2023/07/11 13:53:22;;;;;;;7.93;4.10;;;;;;;;;;5003564;28;20057;-84
2023/07/11 13:55:51;;;;;;;8.13;4.50;;;;;;;;;;5002846;28;20045;-83
2023/07/11 13:58:21;;;;;;;7.93;4.60;;;;;;;;;;5005322;28;20045;-84
2023/07/11 14:00:53;;;;;;;11.93;4.43;;;;;;;;;;4999443;28;20046;-84
2023/07/11 14:03:23;;;;;;;10.05;4.53;;;;;;;;;;5001186;28;20042;-83
2023/07/11 14:05:52;;;;;;;6.13;4.18;;;;;;;;;;5011705;28;20046;-82
2023/07/11 14:08:18;;;;;;;10.00;4.30;;;;;;;;;;5007726;28;20048;-86
2023/07/11 14:10:45;;;;;;;8.77;4.47;;;;;;;;;;5011778;28;20511;-84
2023/07/11 14:13:29;;;;;;;9.35;4.38;;;;;;;;;;4993963;28;20600;-85
2023/07/11 14:15:58;;;;;;;9.20;4.63;;;;;;;;;;5011151;28;20048;-84
2023/07/11 14:18:24;;;;;;;6.65;4.15;;;;;;;;;;5009173;28;20120;-85
2023/07/11 14:20:50;;;;;;;13.80;4.50;;;;;;;;;;5006863;28;20072;-84
2023/07/11 14:23:25;;;;;;;11.77;4.50;;;;;;;;;;5005165;28;20117;-86
2023/07/11 14:25:51;;;;;;;7.78;4.40;;;;;;;;;;5009210;28;20042;-86
2023/07/11 14:28:17;;;;;;;11.93;4.70;;;;;;;;;;5013707;28;20092;-84
2023/07/11 14:30:44;;;;;;;8.20;4.53;;;;;;;;;;4997050;28;20038;-87
2023/07/11 14:33:15;;;;;;;7.10;4.28;;;;;;;;;;4997709;28;20053;-86
2023/07/11 14:35:41;;;;;;;8.05;4.40;;;;;;;;;;4999759;28;20049;-82
2023/07/11 14:38:15;;;;;;;10.25;4.78;;;;;;;;;;5004857;28;20121;-85
2023/07/11 14:40:41;;;;;;;11.40;4.82;;;;;;;;;;5004763;28;20458;-82
2023/07/11 14:43:15;;;;;;;10.32;4.50;;;;;;;;;;5008076;28;20037;-83
2023/07/11 14:45:41;;;;;;;7.70;4.50;;;;;;;;;;5003299;28;20683;-83
2023/07/11 14:48:21;;;;;;;7.20;4.60;;;;;;;;;;4997344;28;20124;-82
2023/07/11 14:50:49;;;;;;;8.43;4.30;;;;;;;;;;4998238;28;20034;-82
2023/07/11 14:53:27;;;;;;;8.50;4.82;;;;;;;;;;5004006;28;20076;-85
2023/07/11 14:55:53;;;;;;;7.18;4.43;;;;;;;;;;5003144;28;20535;-84
2023/07/11 14:58:18;;;;;;;6.85;4.97;;;;;;;;;;5007264;28;20038;-84